AirNav   Everest Fuels
 
 531 users online  

3AL5 Edwards Farm Airport
Jacksonville, Alabama, USA

GOING TO JACKSONVILLE?


FAA INFORMATION EFFECTIVE 31 JANUARY 2019

Location

FAA Identifier: 3AL5
Lat/Long: 33-50-07.1000N / 085-45-50.1000W
33-50.118333N / 085-45.835000W
33.8353056 / -85.7639167
(estimated)
Elevation: 750 ft. / 229 m (estimated)
Variation: 02W (1995)
From city: 1 mile NW of JACKSONVILLE, AL
Time zone: UTC -6 (UTC -5 during Daylight Saving Time)
Zip code: 36265

Airport Operations

Airport use: Private use. Permission required prior to landing
Activation date: 02/1999
Control tower: no
ARTCC: ATLANTA CENTER
FSS: ANNISTON FLIGHT SERVICE STATION
Attendance: UNATNDD
Wind indicator: yes
Segmented circle: no

Airport Communications

WX ASOS at ANB (16 nm S): 119.675 (256-835-3931)
WX AWOS-3PT at GAD (18 nm NW): 127.825 (256-442-7094)

Nearby radio navigation aids

VOR radial/distance  VOR name  Freq  Var
GADr116/18.0GADSDEN VOR/DME112.3002E
TDGr040/20.9TALLADEGA VOR/DME108.8002E
RMGr238/37.6ROME VORTAC115.4001E

 
NDB name  Hdg/Dist  Freq  Var  ID
CARROLLTON301/35.527804WGPQ --. .--. --.-

Airport Services

Runway Information

Runway 3/21

Dimensions: 1700 x 75 ft. / 518 x 23 m
Surface: turf
RUNWAY 3  RUNWAY 21
Traffic pattern: leftleft

Airport Ownership and Management from official FAA records

Ownership: Privately-owned
Owner: W.D. MONTGOMERY
1305 PELHAM ROAD NORTH
JACKSONVILLE, AL 36265
Phone (256) 279-3376
Manager: W.D. MONTGOMERY
1305 PELHAM ROAD NORTH
JACKSONVILLE, AL 36265
Phone (256) 239-8676

Airport Operational Statistics

Aircraft based on the field: 1
Single engine airplanes: 1
    

Additional Remarks

POWER LINE ALONG WESTERN BOUNDARY OF RUNWAY.

Instrument Procedures

There are no published instrument procedures at 3AL5.

Some nearby airports with instrument procedures:

KANB - Anniston Regional Airport (16 nm S)
KPYP - Centre-Piedmont-Cherokee County Regional Airport (17 nm NE)
KGAD - Northeast Alabama Regional Airport (18 nm NW)
KASN - Talladega Municipal Airport (21 nm SW)
KPLR - St Clair County Airport (29 nm SW)
 
Loc | Ops | Rwys | IFR | FBO | Links
Com | Nav | Svcs | Stats | Notes
Area around 3AL5 (Edwards Farm Airport)
 
Road maps at: MapQuest Bing Google
 
Aerial photo
No photo
 
Sectional chart

 
Airport distance calculator
Flying to Edwards Farm Airport? Find the distance to fly.

From to 3AL5

Sunrise and sunset
Times for 22-Feb-2019
 Local
(UTC-6)
 Zulu
(UTC)
Morning civil twilight05:5611:56
Sunrise06:2112:21
Sunset17:3223:32
Evening civil twilight17:5823:58

Current date and time
Zulu (UTC)  23-Feb-2019 05:43:41
Local (UTC-6)  22-Feb-2019 23:43:41
 
METAR
KANB 
16nm S 
230453Z AUTO 07009KT 8SM OVC007 13/12 A3014 RMK AO2 SLP207 T01330117
KGAD 
17nm NW 
230456Z AUTO 07009KT 10SM -RA OVC005 12/12 A3015 RMK AO2 RAE09B40 SLP214 P0000 T01170117
KASN 
21nm SW 
230515Z AUTO 08004KT 5SM BR SCT009 SCT024 OVC080 13/13 A3012 RMK AO2 T01320131
KPLR 
29nm SW 
230515Z AUTO 05003KT 6SM BR BKN003 13/13 A3012 RMK A01
TAF
KANB 
16nm S 
230159Z 2302/2324 06007KT P6SM OVC009 TEMPO 2302/2306 4SM -SHRA OVC006 FM230600 07007KT 5SM BR VCSH OVC007 FM231800 16010G18KT P6SM OVC012
NOTAMs
Click for the latest NOTAMs
NOTAMs are issued by the DoD/FAA and will open in a separate window not controlled by AirNav.

 

 
 

Would you like to see your business listed on this page?

 If your business provides an interesting product or service to pilots, flight crews, aircraft, or users of the Edwards Farm Airport, you should consider listing it here.  To start the listing process, click on the button below
 
Add a business
 

Other Pages about Edwards Farm Airport

Update a link
 
Copyright © AirNav, LLC. All rights reserved. Privacy Policy  Contact